Latest Weather Observations for Birdsville

IDQ60801

Issued at 3:42 pm EST Wednesday 21 November 2018 (issued every 10 minutes, with the page automatically refreshed every 10 minutes)

About weather observations | Map of weather stations | Latest weather observations for QLD | Other Formats
Station Details ID: 038026 Name: BIRDSVILLE AIRPORT Lat: -25.90 Lon: 139.35 Height: 46.6 m
Data from the previous 72 hours. | See also: Recent months at Birdsville
Date/Time
EST
Temp
°C
App
Temp
°C
Dew
Point
°C
Rel
Hum
%
Delta-T
°C
Wind Press
QNH
hPa
Press
MSL
hPa
Rain since
9am
mm
Dir  Spd
km/h
Gust
km/h
Spd
kts
Gust
kts
21/03:30pm 20.5 18.4 16.1 76 2.6 SW 22 28 12 15 1009.1 1008.8 0.6
21/03:00pm 20.2 17.8 16.4 79 2.3 SW 24 30 13 16 1009.4 1009.1 0.6
21/02:30pm 20.3 17.4 16.1 77 2.5 SW 26 32 14 17 1009.5 1009.2 0.6
21/02:00pm 20.3 17.6 16.5 79 2.3 WSW 26 32 14 17 1009.7 1009.4 0.6
21/01:30pm 20.4 18.3 17.2 82 2.0 SW 24 28 13 15 1009.9 1009.6 0.6
21/01:00pm 20.6 19.5 17.4 82 2.0 SW 19 24 10 13 1010.2 1009.9 0.6
21/12:30pm 20.5 19.5 17.5 83 1.8 SW 19 22 10 12 1010.3 1010.0 0.6
21/12:00pm 19.9 18.8 17.7 87 1.4 SW 20 24 11 13 1010.6 1010.3 0.6
21/11:30am 19.5 18.1 18.8 96 0.4 SW 24 28 13 15 1010.9 1010.6 0.6
21/11:00am 19.3 18.1 19.3 100 0.0 SW 24 30 13 16 1011.1 1010.8 0.6
21/10:30am 19.7 19.1 18.5 93 0.7 WSW 19 24 10 13 1011.0 1010.7 0.0
21/10:00am 20.1 20.0 17.9 87 1.4 W 15 20 8 11 1011.1 1010.8 0.0
21/09:30am 21.0 20.7 17.4 80 2.2 W 15 17 8 9 1011.0 1010.7 0.0
21/09:00am 20.8 20.1 17.4 81 2.1 W 17 20 9 11 1010.5 1010.2 4.0
21/08:30am 20.7 21.3 18.6 88 1.3 ESE 13 19 7 10 1010.3 1010.0 4.0
21/08:00am 20.6 21.6 18.7 89 1.2 ESE 11 13 6 7 1009.7 1009.4 4.0
21/07:30am 20.7 21.9 19.0 90 1.1 ESE 11 15 6 8 1009.7 1009.4 4.0
21/07:00am 20.5 20.8 18.8 90 1.1 ESE 15 19 8 10 1008.0 1007.7 4.0
21/06:30am 20.2 21.9 18.5 90 1.1 ESE 7 9 4 5 1008.2 1007.9 4.0
21/06:00am 19.9 21.2 18.4 91 0.9 ESE 9 13 5 7 1007.9 1007.6 4.0
21/05:30am 19.8 20.8 18.6 93 0.7 ESE 11 15 6 8 1007.2 1006.9 4.0
21/05:00am 19.8 20.9 18.8 94 0.6 ESE 11 13 6 7 1007.3 1007.0 4.0
21/04:30am 19.6 19.7 18.3 92 0.8 ESE 15 19 8 10 1007.0 1006.7 4.0
21/04:00am 19.9 20.4 18.4 91 0.9 ESE 13 17 7 9 1008.2 1007.9 3.2
21/03:30am 19.7 20.5 18.2 91 0.9 ESE 11 13 6 7 1007.9 1007.6 3.2
21/03:00am 19.8 20.9 17.9 89 1.2 SE 9 13 5 7 1008.1 1007.8 2.4
21/02:30am 20.1 20.5 18.2 89 1.2 SSE 13 17 7 9 1007.8 1007.5 1.6
21/02:00am 20.4 21.1 18.0 86 1.5 S 11 15 6 8 1008.0 1007.7 1.0
21/01:30am 20.7 20.7 18.1 85 1.6 S 15 19 8 10 1007.7 1007.4 0.8
21/01:00am 21.5 20.1 16.9 75 2.8 SSW 20 26 11 14 1008.2 1007.9 0.8
21/12:30am 22.0 21.4 16.7 72 3.2 S 15 20 8 11 1008.4 1008.1 0.8
21/12:00am 21.9 21.6 17.3 75 2.8 SSE 15 20 8 11 1008.1 1007.8 0.8
 
Date/Time
EST
Temp
°C
App
Temp
°C
Dew
Point
°C
Rel
Hum
%
Delta-T
°C
Wind Press
QNH
hPa
Press
MSL
hPa
Rain since
9am
mm
Dir  Spd
km/h
Gust
km/h
Spd
kts
Gust
kts
20/11:30pm 21.8 20.4 17.0 74 2.9 SSE 20 30 11 16 1007.4 1007.1 0.8
20/11:00pm 22.1 20.2 18.5 80 2.3 SSW 26 32 14 17 1008.9 1008.6 0.8
20/10:30pm 22.2 19.3 18.0 77 2.6 S 30 37 16 20 1008.8 1008.5 0.8
20/10:00pm 22.5 19.8 18.5 78 2.5 S 30 39 16 21 1008.5 1008.2 0.8
20/09:47pm 22.7 20.7 19.1 80 2.3 SSW 28 37 15 20 1008.8 1008.5 0.8
20/09:30pm 22.8 17.0 19.2 80 2.3 SW 48 57 26 31 1009.0 1008.7 0.8
20/09:00pm 24.6 20.2 18.5 69 3.9 SSW 39 48 21 26 1008.2 1007.9 0.8
20/08:30pm 24.5 22.2 20.6 79 2.5 SSW 33 41 18 22 1008.2 1007.9 0.6
20/08:08pm 27.6 21.6 16.9 52 6.7 SSW 44 57 24 31 1008.3 1008.0 0.0
20/08:00pm 27.9 21.4 16.5 50 7.1 SSW 46 59 25 32 1006.3 1006.0 0.0
20/07:30pm 28.7 21.1 16.6 48 7.6 S 52 69 28 37 1004.5 1004.2 0.0
20/07:00pm 30.4 23.5 15.7 41 9.1 S 46 61 25 33 1003.6 1003.3 0.0
20/06:30pm 31.5 25.5 13.3 33 10.9 S 37 54 20 29 1003.2 1002.9 0.0
20/06:00pm 32.3 25.1 12.0 29 12.0 S 41 52 22 28 1002.6 1002.3 0.0
20/05:30pm 32.5 26.0 11.6 28 12.3 S 37 48 20 26 1002.1 1001.8 0.0
20/05:00pm 33.8 26.9 11.6 26 13.2 SSW 39 50 21 27 1001.8 1001.5 0.0
20/04:30pm 37.0 30.7 11.1 21 15.4 SSW 35 43 19 23 1001.9 1001.6 0.0
20/04:00pm 37.4 34.0 11.4 21 15.6 SSW 20 32 11 17 1002.1 1001.8 0.0
20/03:30pm 37.7 34.2 10.9 20 15.9 SSW 20 30 11 16 1002.3 1002.0 0.0
20/03:00pm 38.8 35.2 11.8 20 16.4 SW 22 39 12 21 1002.7 1002.4 0.0
20/02:30pm 37.6 34.1 10.8 20 15.9 SSW 20 30 11 16 1003.2 1002.9 0.0
20/02:00pm 37.3 33.3 10.6 20 15.8 S 22 32 12 17 1003.8 1003.5 0.0
20/01:30pm 37.1 33.7 10.4 20 15.7 SSE 19 30 10 16 1004.3 1004.0 0.0
20/01:00pm 37.3 34.1 9.8 19 16.1 SSW 17 28 9 15 1004.8 1004.5 0.0
20/12:30pm 36.6 32.6 9.2 19 15.8 SSW 20 28 11 15 1005.3 1005.0 0.0
20/12:00pm 37.3 34.4 9.8 19 16.1 SW 15 28 8 15 1005.8 1005.5 0.0
20/11:30am 35.9 33.7 9.4 20 15.3 S 11 20 6 11 1006.4 1006.1 0.0
20/11:00am 35.8 32.4 9.3 20 15.3 SW 17 24 9 13 1006.9 1006.6 0.0
20/10:30am 34.3 30.8 8.8 21 14.5 S 17 28 9 15 1006.9 1006.6 0.0
20/10:00am 34.2 30.7 8.8 21 14.4 SSW 17 28 9 15 1007.2 1006.9 0.0
20/09:30am 33.5 29.3 8.2 21 14.2 SW 20 26 11 14 1007.2 1006.9 0.0
20/09:00am 33.6 31.6 10.2 24 13.5 WSW 11 15 6 8 1007.2 1006.9 0.0
20/08:30am 32.4 30.1 10.4 26 12.7 NNW 13 17 7 9 1007.2 1006.9 0.0
20/08:00am 31.6 28.4 9.8 26 12.4 NNW 17 22 9 12 1007.1 1006.8 0.0
20/07:30am 30.9 27.6 9.7 27 12.0 WNW 17 26 9 14 1007.0 1006.7 0.0
20/07:00am 29.7 26.7 9.3 28 11.4 NW 15 19 8 10 1006.3 1006.0 0.0
20/06:30am 28.9 25.1 7.5 26 11.6 NW 17 19 9 10 1005.9 1005.6 0.0
20/06:00am 27.5 23.8 6.3 26 11.2 NNW 15 17 8 9 1005.1 1004.8 0.0
20/05:30am 26.8 23.2 5.1 25 11.1 N 13 17 7 9 1004.7 1004.4 0.0
20/05:00am 26.6 22.6 5.0 25 11.1 NNW 15 17 8 9 1004.5 1004.2 0.0
20/04:30am 26.2 22.4 4.1 24 11.1 N 13 15 7 8 1004.3 1004.0 0.0
20/04:00am 26.8 23.8 4.0 23 11.5 N 9 11 5 6 1004.4 1004.1 0.0
20/03:30am 26.6 23.2 3.8 23 11.4 NNW 11 15 6 8 1004.8 1004.5 0.0
20/03:00am 26.8 23.3 3.3 22 11.7 NNW 11 15 6 8 1004.8 1004.5 0.0
20/02:30am 27.0 21.9 2.8 21 11.9 N 19 28 10 15 1005.0 1004.7 0.0
20/02:00am 26.7 23.6 7.2 29 10.4 ESE 13 15 7 8 1004.9 1004.6 0.0
20/01:30am 27.3 24.5 3.1 21 12.0 ESE 7 7 4 4 1004.8 1004.5 0.0
20/01:00am 27.2 26.3 6.0 26 11.1 CALM 0 0 0 0 1005.1 1004.8 0.0
20/12:30am 27.9 26.6 4.2 22 12.0 CALM 0 0 0 0 1005.3 1005.0 0.0
20/12:00am 27.8 26.8 5.4 24 11.6 CALM 0 0 0 0 1005.7 1005.4 0.0
 
Date/Time
EST
Temp
°C
App
Temp
°C
Dew
Point
°C
Rel
Hum
%
Delta-T
°C
Wind Press
QNH
hPa
Press
MSL
hPa
Rain since
9am
mm
Dir  Spd
km/h
Gust
km/h
Spd
kts
Gust
kts
19/11:30pm 28.5 26.9 4.7 22 12.2 S 2 6 1 3 1006.1 1005.8 0.0
19/11:00pm 29.2 26.3 2.5 18 13.3 S 7 9 4 5 1006.3 1006.0 0.0
19/10:30pm 29.6 26.6 2.0 17 13.6 S 7 9 4 5 1006.4 1006.1 0.0
19/10:00pm 30.8 27.4 -0.8 13 15.0 S 7 9 4 5 1006.5 1006.2 0.0
19/09:30pm 31.3 27.5 -0.4 13 15.2 S 9 11 5 6 1006.1 1005.8 0.0
19/09:00pm 32.4 28.0 0.5 13 15.7 S 13 15 7 8 1005.6 1005.3 0.0
19/08:30pm 33.2 29.3 1.1 13 16.0 S 11 13 6 7 1005.3 1005.0 0.0
19/08:00pm 34.0 30.0 0.6 12 16.6 SSW 11 11 6 6 1005.1 1004.8 0.0
19/07:30pm 35.4 31.2 -0.8 10 17.7 SSW 11 11 6 6 1004.9 1004.6 0.0
19/07:00pm 37.1 32.9 -1.0 9 18.9 SW 11 15 6 8 1004.8 1004.5 0.0
19/06:30pm 38.1 33.8 -1.9 8 19.6 SW 11 19 6 10 1004.7 1004.4 0.0
19/06:00pm 38.6 33.2 -1.5 8 19.9 WSW 17 20 9 11 1004.6 1004.3 0.0
19/05:30pm 38.8 34.2 -1.3 8 19.9 WSW 13 20 7 11 1004.7 1004.4 0.0
19/05:00pm 39.1 33.2 -1.1 8 20.1 WNW 20 28 11 15 1004.8 1004.5 0.0
19/04:30pm 39.2 33.8 -1.1 8 20.1 W 17 26 9 14 1004.9 1004.6 0.0
19/04:00pm 39.2 33.3 -1.1 8 20.2 WNW 20 32 11 17 1005.0 1004.7 0.0
19/03:30pm 39.3 32.6 -1.0 8 20.2 W 24 35 13 19 1005.4 1005.1 0.0
19/03:00pm 39.2 33.5 -1.1 8 20.2 W 19 32 10 17 1005.6 1005.3 0.0
19/02:30pm 39.5 34.2 -0.8 8 20.2 SW 17 24 9 13 1006.0 1005.7 0.0
19/02:00pm 38.7 32.7 -3.2 7 20.2 W 19 39 10 21 1006.4 1006.1 0.0
19/01:30pm 38.3 33.0 -3.5 7 20.0 SW 15 35 8 19 1006.9 1006.6 0.0
19/01:00pm 37.9 33.3 -3.8 7 19.8 SSW 11 24 6 13 1007.3 1007.0 0.0
19/12:30pm 37.9 32.6 -3.8 7 19.8 SW 15 24 8 13 1007.7 1007.4 0.0
19/12:00pm 36.8 31.8 -4.6 7 19.3 SSW 13 20 7 11 1008.1 1007.8 0.0
19/11:30am 36.5 32.8 -3.0 8 18.8 WNW 7 9 4 5 1008.6 1008.3 0.0
19/11:00am 36.2 32.1 -3.3 8 18.7 NW 9 15 5 8 1008.9 1008.6 0.0
19/10:30am 35.3 31.5 -3.9 8 18.2 SSE 7 11 4 6 1009.1 1008.8 0.0
19/10:00am 34.5 30.0 -2.9 9 17.6 SE 11 17 6 9 1009.3 1009.0 0.0
19/09:30am 33.7 29.0 -2.1 10 17.0 ESE 13 17 7 9 1009.4 1009.1 0.0
19/09:00am 32.1 27.1 -0.9 12 15.8 SE 15 19 8 10 1009.7 1009.4 0.0
19/08:30am 30.5 26.0 0.0 14 14.6 SE 13 17 7 9 1009.7 1009.4 0.0
19/08:00am 28.6 23.6 1.2 17 13.3 SE 17 20 9 11 1009.5 1009.2 0.0
19/07:30am 26.6 22.4 1.8 20 12.0 SSE 13 17 7 9 1009.3 1009.0 0.0
19/07:00am 24.8 20.6 1.7 22 11.0 SE 13 19 7 10 1009.2 1008.9 0.0
19/06:30am 23.4 19.2 1.7 24 10.2 SSE 13 15 7 8 1009.0 1008.7 0.0
19/06:00am 22.6 18.1 2.1 26 9.7 SE 15 19 8 10 1008.7 1008.4 0.0
19/05:30am 23.5 19.3 1.8 24 10.2 SSE 13 17 7 9 1008.6 1008.3 0.0
19/05:00am 23.8 19.6 1.4 23 10.5 SSE 13 17 7 9 1008.4 1008.1 0.0
19/04:30am 24.2 20.1 2.4 24 10.4 SE 13 17 7 9 1008.2 1007.9 0.0
19/04:00am 24.0 20.5 3.3 26 10.1 SSE 11 13 6 7 1008.2 1007.9 0.0
19/03:30am 23.5 20.4 3.4 27 9.8 S 9 9 5 5 1008.2 1007.9 0.0
19/03:00am 25.2 21.5 2.6 23 11.0 SSE 11 15 6 8 1008.2 1007.9 0.0
19/02:30am 25.0 21.9 3.6 25 10.5 SSE 9 11 5 6 1008.3 1008.0 0.0
19/02:00am 25.3 22.0 2.7 23 11.0 S 9 9 5 5 1008.5 1008.2 0.0
19/01:30am 25.5 22.2 2.2 22 11.2 S 9 9 5 5 1008.7 1008.4 0.0
19/01:00am 26.3 23.0 2.3 21 11.7 S 9 11 5 6 1009.0 1008.7 0.0
19/12:30am 26.5 23.1 1.7 20 11.9 SSE 9 11 5 6 1009.3 1009.0 0.0
19/12:00am 27.3 23.5 1.7 19 12.4 SSE 11 15 6 8 1009.4 1009.1 0.0
 
Date/Time
EST
Temp
°C
App
Temp
°C
Dew
Point
°C
Rel
Hum
%
Delta-T
°C
Wind Press
QNH
hPa
Press
MSL
hPa
Rain since
9am
mm
Dir  Spd
km/h
Gust
km/h
Spd
kts
Gust
kts
18/11:30pm 28.4 23.7 1.0 17 13.2 SSE 15 19 8 10 1009.8 1009.5 0.0
18/11:00pm 28.8 24.0 0.5 16 13.6 S 15 19 8 10 1010.0 1009.7 0.0
18/10:30pm 29.6 24.7 -0.7 14 14.3 S 15 17 8 9 1010.2 1009.9 0.0
18/10:00pm 28.5 24.7 1.9 18 13.0 SSW 11 13 6 7 1010.0 1009.7 0.0
18/09:30pm 29.7 25.8 1.2 16 13.9 SSW 11 13 6 7 1009.9 1009.6 0.0
18/09:00pm 30.3 26.3 0.8 15 14.4 SSW 11 13 6 7 1009.7 1009.4 0.0
18/08:30pm 31.3 26.8 -0.4 13 15.2 SSW 13 15 7 8 1009.2 1008.9 0.0
18/08:00pm 32.7 27.3 -1.6 11 16.3 SSW 17 19 9 10 1008.8 1008.5 0.0
18/07:30pm 33.4 28.6 -2.3 10 16.8 SSW 13 15 7 8 1008.7 1008.4 0.0
18/07:00pm 34.5 29.3 -2.9 9 17.6 SW 15 19 8 10 1008.5 1008.2 0.0
18/06:30pm 35.5 29.8 -3.8 8 18.3 SSW 17 22 9 12 1008.2 1007.9 0.0
18/06:00pm 35.9 29.5 -5.2 7 18.8 SSW 20 26 11 14 1007.9 1007.6 0.0
18/05:30pm 36.7 30.5 -2.9 8 18.9 S 20 30 11 16 1007.8 1007.5 0.0
18/05:00pm 36.3 29.9 -5.0 7 19.1 S 20 30 11 16 1007.7 1007.4 0.0
18/04:30pm 36.9 32.5 -2.7 8 19.0 SSE 11 20 6 11 1007.7 1007.4 0.0
18/04:00pm 37.0 31.0 -2.7 8 19.1 SSW 19 26 10 14 1007.9 1007.6 0.0

Other Formats:

Comma delimited format used in spreadsheet applications
http://www.bom.gov.au/fwo/IDQ60801/IDQ60801.95482.axf

JavaScript Object Notation format (JSON) in row-major order
http://www.bom.gov.au/fwo/IDQ60801/IDQ60801.95482.json